createdAt,value
2023-04-15T00:02:26.463Z,95.16
2023-04-15T00:04:54.639Z,95.03
2023-04-15T00:07:22.208Z,94.88
2023-04-15T00:09:49.692Z,94.79
2023-04-15T00:12:17.469Z,94.82
2023-04-15T00:14:44.969Z,94.70
2023-04-15T00:17:12.487Z,94.88
2023-04-15T00:19:40.889Z,94.92
2023-04-15T00:22:09.286Z,95.16
2023-04-15T00:24:36.932Z,95.46
2023-04-15T00:27:04.777Z,95.62
2023-04-15T00:29:32.451Z,96.05
2023-04-15T00:32:00.240Z,96.58
2023-04-15T00:34:28.918Z,96.42
2023-04-15T00:36:56.379Z,96.56
2023-04-15T00:39:24.020Z,96.86
2023-04-15T00:41:51.971Z,97.15
2023-04-15T00:44:19.408Z,97.84
2023-04-15T00:46:48.751Z,97.57
2023-04-15T00:49:18.388Z,97.66
2023-04-15T00:51:45.951Z,97.73
2023-04-15T00:54:13.756Z,97.84
2023-04-15T00:56:42.160Z,98.11
2023-04-15T00:59:10.063Z,98.09
2023-04-15T01:01:38.402Z,98.00
2023-04-15T01:04:07.164Z,98.17
2023-04-15T01:06:34.671Z,97.83
2023-04-15T01:09:03.496Z,97.83
2023-04-15T01:11:34.369Z,97.75
2023-04-15T01:14:02.055Z,97.66
2023-04-15T01:16:29.832Z,99.22
2023-04-15T01:18:57.817Z,99.74
2023-04-15T01:21:25.517Z,100.00
2023-04-15T01:23:53.453Z,99.58
2023-04-15T01:26:22.233Z,100.00
2023-04-15T01:28:50.690Z,100.00
2023-04-15T01:31:18.374Z,99.08
2023-04-15T01:33:47.041Z,99.11
2023-04-15T01:36:15.314Z,99.02
2023-04-15T01:38:42.785Z,100.00
2023-04-15T01:41:10.589Z,99.85
2023-04-15T01:43:38.105Z,99.65
2023-04-15T01:46:06.229Z,99.14
2023-04-15T01:48:34.884Z,99.05
2023-04-15T01:51:04.275Z,99.08
2023-04-15T01:53:31.785Z,99.12
2023-04-15T01:55:59.865Z,99.23
2023-04-15T01:58:27.319Z,99.12
2023-04-15T02:00:55.385Z,99.07
2023-04-15T02:03:25.496Z,99.53
2023-04-15T02:05:53.190Z,99.67
2023-04-15T02:08:21.831Z,99.51
2023-04-15T02:10:49.602Z,99.37
2023-04-15T02:13:17.326Z,99.18
2023-04-15T02:15:55.598Z,99.55
2023-04-15T02:18:23.217Z,99.79
2023-04-15T02:20:54.396Z,100.00
2023-04-15T02:23:22.040Z,100.00
2023-04-15T02:25:53.898Z,100.00
2023-04-15T02:28:22.197Z,100.00
2023-04-15T02:30:53.643Z,100.00
2023-04-15T02:33:21.754Z,100.00
2023-04-15T02:35:49.531Z,100.00
2023-04-15T02:38:18.015Z,100.00
2023-04-15T02:44:25.151Z,99.74
2023-04-15T02:46:54.910Z,99.14
2023-04-15T02:49:23.012Z,98.82
2023-04-15T02:51:51.374Z,98.88
2023-04-15T02:54:23.011Z,98.78
2023-04-15T02:56:51.187Z,98.50
2023-04-15T02:59:18.637Z,98.46
2023-04-15T03:01:46.370Z,98.66
2023-04-15T03:04:14.467Z,98.58
2023-04-15T03:06:42.313Z,98.46
2023-04-15T03:09:10.036Z,98.91
2023-04-15T03:11:40.779Z,100.00
2023-04-15T03:14:08.436Z,100.00
2023-04-15T03:16:36.336Z,99.47
2023-04-15T03:19:04.240Z,99.20
2023-04-15T03:21:32.446Z,99.11
2023-04-15T03:23:59.988Z,99.00
2023-04-15T03:26:29.471Z,99.81
2023-04-15T03:29:00.741Z,100.00
2023-04-15T03:31:28.991Z,100.00
2023-04-15T03:33:56.494Z,100.00
2023-04-15T03:36:24.213Z,100.00
2023-04-15T03:38:51.978Z,100.00
2023-04-15T03:41:19.370Z,100.00
2023-04-15T03:43:47.071Z,100.00
2023-04-15T03:46:14.771Z,100.00
2023-04-15T03:48:42.248Z,100.00
2023-04-15T03:51:09.714Z,100.00
2023-04-15T03:53:37.501Z,100.00
2023-04-15T03:56:05.329Z,100.00
2023-04-15T03:58:32.780Z,99.65
2023-04-15T04:01:00.478Z,99.71
2023-04-15T04:03:28.661Z,99.43
2023-04-15T04:05:56.315Z,100.00
2023-04-15T04:08:24.028Z,99.97
2023-04-15T04:10:51.919Z,99.24
2023-04-15T04:13:19.354Z,99.04
2023-04-15T04:15:46.877Z,99.19
2023-04-15T04:18:14.742Z,99.04
2023-04-15T04:20:42.315Z,98.86
2023-04-15T04:23:09.904Z,98.65
2023-04-15T04:25:37.696Z,98.62
2023-04-15T04:28:05.081Z,98.59
2023-04-15T04:30:32.748Z,98.94
2023-04-15T04:33:00.585Z,99.05
2023-04-15T04:35:28.148Z,98.51
2023-04-15T04:37:56.069Z,98.35
2023-04-15T04:40:23.903Z,98.34
2023-04-15T04:42:51.365Z,98.40
2023-04-15T04:45:18.803Z,98.48
2023-04-15T04:47:47.584Z,98.42
2023-04-15T04:50:15.023Z,100.00
2023-04-15T04:52:42.431Z,99.49
2023-04-15T04:55:10.326Z,98.86
2023-04-15T04:57:39.511Z,98.81
2023-04-15T05:00:18.288Z,98.44
2023-04-15T05:02:46.518Z,98.06
2023-04-15T05:05:14.047Z,97.69
2023-04-15T05:07:41.444Z,97.52
2023-04-15T05:10:09.560Z,97.81
2023-04-15T05:12:38.502Z,97.35
2023-04-15T05:15:06.823Z,99.47
2023-04-15T05:17:35.412Z,99.89
2023-04-15T05:20:03.690Z,98.95
2023-04-15T05:22:31.392Z,100.00
2023-04-15T05:24:59.375Z,100.00
2023-04-15T05:27:26.846Z,100.00
2023-04-15T05:29:54.299Z,100.00
2023-04-15T05:32:22.181Z,100.00
2023-04-15T05:34:49.658Z,100.00
2023-04-15T05:37:17.226Z,99.95
2023-04-15T05:39:45.048Z,99.60
2023-04-15T05:42:12.596Z,99.84
2023-04-15T05:44:40.097Z,100.00
2023-04-15T05:47:08.725Z,99.92
2023-04-15T05:49:36.385Z,99.24
2023-04-15T05:52:03.939Z,97.86
2023-04-15T05:54:31.709Z,97.71
2023-04-15T05:56:59.211Z,97.06
2023-04-15T05:59:28.362Z,96.84
2023-04-15T06:01:56.553Z,95.50
2023-04-15T06:04:24.626Z,94.65
2023-04-15T06:06:52.301Z,94.42
2023-04-15T06:09:19.704Z,94.08
2023-04-15T06:11:47.492Z,94.03
2023-04-15T06:14:14.953Z,93.50
2023-04-15T06:16:42.538Z,91.72
2023-04-15T06:19:10.815Z,91.75
2023-04-15T06:21:38.520Z,89.99
2023-04-15T06:24:06.111Z,89.36
2023-04-15T06:26:33.914Z,90.08
2023-04-15T06:29:01.669Z,89.15
2023-04-15T06:31:29.279Z,88.48
2023-04-15T06:33:57.026Z,89.43
2023-04-15T06:36:24.524Z,88.02
2023-04-15T06:38:51.982Z,88.54
2023-04-15T06:41:19.857Z,88.43
2023-04-15T06:43:47.452Z,87.76
2023-04-15T06:46:15.051Z,86.99
2023-04-15T06:48:42.924Z,86.15
2023-04-15T06:51:10.442Z,85.34
2023-04-15T06:53:41.113Z,85.40
2023-04-15T06:56:09.639Z,85.27
2023-04-15T06:58:37.269Z,84.82
2023-04-15T07:01:04.918Z,84.34
2023-04-15T07:03:33.074Z,84.00
2023-04-15T07:06:01.737Z,83.08
2023-04-15T07:08:29.213Z,82.69
2023-04-15T07:10:57.207Z,84.20
2023-04-15T07:13:24.936Z,83.22
2023-04-15T07:15:52.367Z,82.13
2023-04-15T07:18:20.480Z,81.63
2023-04-15T07:20:48.288Z,81.83
2023-04-15T07:23:16.635Z,80.99
2023-04-15T07:25:44.370Z,80.61
2023-04-15T07:28:12.180Z,76.97
2023-04-15T07:30:39.640Z,75.80
2023-04-15T07:33:07.952Z,75.19
2023-04-15T07:35:35.529Z,73.39
2023-04-15T07:38:03.249Z,73.69
2023-04-15T07:40:31.308Z,73.49
2023-04-15T07:42:59.078Z,73.37
2023-04-15T07:45:27.406Z,72.86
2023-04-15T07:47:56.741Z,72.06
2023-04-15T07:50:24.582Z,71.62
2023-04-15T07:52:52.983Z,70.95
2023-04-15T07:55:22.882Z,70.01
2023-04-15T07:57:51.115Z,70.28
2023-04-15T08:00:18.658Z,70.99
2023-04-15T08:02:48.531Z,70.53
2023-04-15T08:05:16.274Z,71.11
2023-04-15T08:07:43.867Z,71.38
2023-04-15T08:10:12.152Z,70.30
2023-04-15T08:12:39.602Z,70.92
2023-04-15T08:15:08.344Z,69.47
2023-04-15T08:17:36.143Z,69.24
2023-04-15T08:20:05.855Z,71.20
2023-04-15T08:22:33.404Z,70.08
2023-04-15T08:25:01.569Z,68.89
2023-04-15T08:27:29.125Z,68.39
2023-04-15T08:29:56.637Z,66.97
2023-04-15T08:32:26.265Z,66.05
2023-04-15T08:34:54.214Z,64.43
2023-04-15T08:37:22.930Z,65.19
2023-04-15T08:39:50.613Z,63.79
2023-04-15T08:42:23.050Z,65.64
2023-04-15T08:44:51.732Z,65.10
2023-04-15T08:47:21.717Z,65.02
2023-04-15T08:49:53.876Z,62.87
2023-04-15T08:52:22.594Z,60.98
2023-04-15T08:54:50.165Z,61.37
2023-04-15T08:57:17.949Z,60.21
2023-04-15T08:59:46.047Z,58.84
2023-04-15T09:02:13.653Z,57.48
2023-04-15T09:04:41.423Z,55.91
2023-04-15T09:07:09.227Z,54.18
2023-04-15T09:09:37.517Z,56.23
2023-04-15T09:12:05.192Z,56.30
2023-04-15T09:14:34.059Z,56.17
2023-04-15T09:17:03.253Z,55.04
2023-04-15T09:19:31.572Z,55.38
2023-04-15T09:21:59.664Z,55.39
2023-04-15T09:24:37.527Z,56.13
2023-04-15T09:27:05.691Z,53.65
2023-04-15T09:29:33.569Z,54.02
2023-04-15T09:32:11.817Z,54.76
2023-04-15T09:34:39.869Z,56.18
2023-04-15T09:37:08.073Z,57.79
2023-04-15T09:39:56.314Z,55.79
2023-04-15T09:42:24.687Z,56.28
2023-04-15T09:44:55.378Z,55.97
2023-04-15T09:47:32.834Z,54.93
2023-04-15T09:50:01.683Z,54.77
2023-04-15T09:52:29.894Z,55.10
2023-04-15T09:54:58.844Z,53.39
2023-04-15T09:57:34.499Z,56.47
2023-04-15T10:00:04.263Z,53.37
2023-04-15T10:02:35.295Z,54.07
2023-04-15T10:05:03.459Z,52.75
2023-04-15T10:07:31.082Z,53.52
2023-04-15T10:10:00.079Z,54.41
2023-04-15T10:12:28.508Z,54.69
2023-04-15T10:14:59.488Z,54.35
2023-04-15T10:17:33.812Z,53.94
2023-04-15T10:20:04.753Z,53.53
2023-04-15T10:22:33.274Z,53.79
2023-04-15T10:25:02.892Z,54.92
2023-04-15T10:27:30.536Z,54.79
2023-04-15T10:29:58.619Z,53.23
2023-04-15T10:32:27.174Z,53.07
2023-04-15T10:34:55.265Z,54.39
2023-04-15T10:37:23.722Z,55.60
2023-04-15T10:39:51.519Z,52.66
2023-04-15T10:42:19.736Z,53.59
2023-04-15T10:44:51.905Z,49.95
2023-04-15T10:47:21.732Z,50.37
2023-04-15T10:49:52.441Z,50.77
2023-04-15T10:52:25.881Z,49.83
2023-04-15T10:55:23.207Z,48.56
2023-04-15T10:57:54.701Z,48.83
2023-04-15T11:00:25.934Z,48.24
2023-04-15T11:02:58.836Z,47.58
2023-04-15T11:05:41.495Z,47.84
2023-04-15T11:08:10.326Z,47.90
2023-04-15T11:10:37.637Z,48.11
2023-04-15T11:13:15.558Z,47.21
2023-04-15T11:15:47.407Z,50.07
2023-04-15T11:18:28.672Z,49.28
2023-04-15T11:20:59.592Z,47.94
2023-04-15T11:23:33.275Z,49.77
2023-04-15T11:26:11.847Z,48.76
2023-04-15T11:28:41.422Z,50.96
2023-04-15T11:31:17.664Z,52.48
2023-04-15T11:33:56.539Z,49.89
2023-04-15T11:36:27.276Z,48.85
2023-04-15T11:38:55.585Z,48.08
2023-04-15T11:41:23.863Z,47.95
2023-04-15T11:43:52.335Z,48.30
2023-04-15T11:46:23.001Z,48.90
2023-04-15T11:48:50.655Z,49.24
2023-04-15T11:51:20.898Z,50.58
2023-04-15T11:53:50.514Z,52.14
2023-04-15T11:56:23.377Z,51.49
2023-04-15T11:59:01.114Z,53.08
2023-04-15T12:01:36.534Z,52.56
2023-04-15T12:04:15.048Z,52.99
2023-04-15T12:06:43.063Z,51.68
2023-04-15T12:09:14.327Z,51.71
2023-04-15T12:11:47.512Z,51.19
2023-04-15T12:14:22.921Z,49.78
2023-04-15T12:16:58.206Z,48.04
2023-04-15T12:19:28.649Z,48.92
2023-04-15T12:22:01.876Z,49.01
2023-04-15T12:24:33.689Z,51.36
2023-04-15T12:27:04.728Z,51.93
2023-04-15T12:29:34.305Z,49.91
2023-04-15T12:32:10.415Z,50.09
2023-04-15T12:34:38.083Z,50.67
2023-04-15T12:37:07.664Z,50.39
2023-04-15T12:39:36.580Z,51.38
2023-04-15T12:42:05.310Z,52.03
2023-04-15T12:44:33.362Z,50.54
2023-04-15T12:47:01.356Z,49.60
2023-04-15T12:49:29.320Z,51.29
2023-04-15T12:51:59.995Z,49.34
2023-04-15T12:54:28.608Z,51.60
2023-04-15T12:56:56.997Z,51.22
2023-04-15T12:59:24.729Z,47.98
2023-04-15T13:01:53.495Z,48.01
2023-04-15T13:04:21.964Z,49.92
2023-04-15T13:06:49.862Z,49.06
2023-04-15T13:09:17.492Z,50.08
2023-04-15T13:11:45.328Z,49.42
2023-04-15T13:14:13.131Z,51.10
2023-04-15T13:16:41.357Z,50.96
2023-04-15T13:19:09.344Z,51.76
2023-04-15T13:21:37.047Z,51.95
2023-04-15T13:24:07.138Z,51.17
2023-04-15T13:26:35.115Z,52.29
2023-04-15T13:29:02.562Z,51.88
2023-04-15T13:31:30.599Z,52.38
2023-04-15T13:33:58.470Z,52.07
2023-04-15T13:36:26.692Z,52.24
2023-04-15T13:38:54.421Z,52.84
2023-04-15T13:41:22.298Z,52.90
2023-04-15T13:43:49.721Z,53.86
2023-04-15T13:46:17.216Z,53.37
2023-04-15T13:48:45.305Z,54.77
2023-04-15T13:51:12.829Z,54.00
2023-04-15T13:53:41.080Z,53.86
2023-04-15T13:56:10.108Z,53.29
2023-04-15T13:58:37.980Z,54.89
2023-04-15T14:01:06.960Z,54.49
2023-04-15T14:03:36.554Z,54.65
2023-04-15T14:06:05.625Z,57.14
2023-04-15T14:08:33.681Z,56.42
2023-04-15T14:11:01.538Z,56.69
2023-04-15T14:13:29.369Z,56.71
2023-04-15T14:15:57.091Z,57.04
2023-04-15T14:18:25.005Z,56.62
2023-04-15T14:20:52.467Z,56.37
2023-04-15T14:23:20.200Z,56.62
2023-04-15T14:25:48.490Z,56.67
2023-04-15T14:28:16.080Z,57.28
2023-04-15T14:30:43.749Z,57.58
2023-04-15T14:33:11.940Z,56.70
2023-04-15T14:35:39.438Z,57.17
2023-04-15T14:38:10.564Z,56.87
2023-04-15T14:40:39.031Z,56.54
2023-04-15T14:43:06.720Z,56.62
2023-04-15T14:45:34.751Z,55.98
2023-04-15T14:48:02.824Z,55.40
2023-04-15T14:50:30.363Z,55.23
2023-04-15T14:52:58.919Z,54.98
2023-04-15T14:55:26.600Z,54.68
2023-04-15T14:57:54.060Z,54.01
2023-04-15T15:00:21.565Z,56.50
2023-04-15T15:02:49.678Z,53.50
2023-04-15T15:05:17.704Z,54.71
2023-04-15T15:07:45.335Z,54.85
2023-04-15T15:10:13.397Z,55.43
2023-04-15T15:12:40.934Z,56.55
2023-04-15T15:15:24.887Z,56.01
2023-04-15T15:17:53.969Z,56.26
2023-04-15T15:20:22.031Z,56.72
2023-04-15T15:22:49.720Z,54.75
2023-04-15T15:25:17.708Z,53.58
2023-04-15T15:27:45.400Z,53.74
2023-04-15T15:30:13.144Z,53.69
2023-04-15T15:32:41.939Z,55.22
2023-04-15T15:35:09.858Z,55.71
2023-04-15T15:37:37.528Z,54.00
2023-04-15T15:40:06.146Z,54.81
2023-04-15T15:42:34.318Z,55.65
2023-04-15T15:45:03.734Z,54.43
2023-04-15T15:47:32.114Z,54.33
2023-04-15T15:50:00.660Z,54.58
2023-04-15T15:52:28.161Z,56.84
2023-04-15T15:54:56.092Z,55.40
2023-04-15T15:57:23.611Z,55.74
2023-04-15T16:00:00.765Z,55.06
2023-04-15T16:03:04.390Z,55.16
2023-04-15T16:05:25.411Z,54.76
2023-04-15T16:07:53.046Z,56.64
2023-04-15T16:10:20.550Z,57.03
2023-04-15T16:12:48.429Z,57.28
2023-04-15T16:15:15.978Z,56.75
2023-04-15T16:17:43.965Z,55.93
2023-04-15T16:20:11.883Z,57.41
2023-04-15T16:22:39.548Z,57.31
2023-04-15T16:25:07.361Z,57.94
2023-04-15T16:27:40.745Z,57.86
2023-04-15T16:30:17.815Z,58.51
2023-04-15T16:32:46.081Z,57.35
2023-04-15T16:35:16.192Z,57.52
2023-04-15T16:37:43.761Z,57.22
2023-04-15T16:40:12.052Z,57.50
2023-04-15T16:42:39.899Z,58.35
2023-04-15T16:45:07.590Z,57.71
2023-04-15T16:47:35.489Z,57.17
2023-04-15T16:50:03.092Z,57.56
2023-04-15T16:52:30.652Z,57.11
2023-04-15T16:54:58.414Z,57.28
2023-04-15T16:57:25.927Z,57.28
2023-04-15T17:00:06.747Z,57.45
2023-04-15T17:02:34.734Z,57.83
2023-04-15T17:05:03.244Z,58.30
2023-04-15T17:07:31.091Z,58.77
2023-04-15T17:09:58.658Z,59.22
2023-04-15T17:12:26.267Z,59.60
2023-04-15T17:14:54.058Z,60.00
2023-04-15T17:17:22.144Z,60.61
2023-04-15T17:19:49.665Z,61.46
2023-04-15T17:22:17.663Z,61.92
2023-04-15T17:24:45.146Z,62.35
2023-04-15T17:27:12.584Z,62.99
2023-04-15T17:29:40.397Z,63.20
2023-04-15T17:32:08.477Z,63.84
2023-04-15T17:34:50.547Z,65.66
2023-04-15T17:37:19.075Z,66.81
2023-04-15T17:39:46.662Z,67.25
2023-04-15T17:42:14.531Z,66.37
2023-04-15T17:44:42.606Z,66.48
2023-04-15T17:47:10.405Z,66.68
2023-04-15T17:49:38.261Z,67.98
2023-04-15T17:52:06.369Z,68.24
2023-04-15T17:54:34.081Z,69.12
2023-04-15T17:57:03.308Z,69.17
2023-04-15T17:59:31.314Z,68.26
2023-04-15T18:01:59.234Z,70.14
2023-04-15T18:04:27.423Z,71.40
2023-04-15T18:06:55.250Z,71.59
2023-04-15T18:09:22.988Z,70.78
2023-04-15T18:11:51.246Z,69.98
2023-04-15T18:14:32.972Z,70.34
2023-04-15T18:17:05.261Z,71.74
2023-04-15T18:19:33.036Z,72.18
2023-04-15T18:22:01.120Z,71.91
2023-04-15T18:24:29.013Z,72.54
2023-04-15T18:26:57.138Z,73.49
2023-04-15T18:29:25.419Z,73.03
2023-04-15T18:31:53.686Z,72.73
2023-04-15T18:34:21.214Z,72.72
2023-04-15T18:36:48.901Z,73.62
2023-04-15T18:39:16.972Z,73.90
2023-04-15T18:41:44.468Z,73.96
2023-04-15T18:44:12.404Z,73.38
2023-04-15T18:46:40.604Z,73.69
2023-04-15T18:49:08.435Z,73.34
2023-04-15T18:51:36.128Z,73.27
2023-04-15T18:54:04.369Z,73.27
2023-04-15T18:56:32.012Z,72.49
2023-04-15T18:59:22.898Z,72.71
2023-04-15T19:01:48.782Z,72.58
2023-04-15T19:04:16.596Z,73.07
2023-04-15T19:06:44.281Z,73.37
2023-04-15T19:09:12.597Z,74.04
2023-04-15T19:11:40.408Z,73.81
2023-04-15T19:14:08.531Z,74.29
2023-04-15T19:16:36.548Z,74.28
2023-04-15T19:19:04.625Z,74.33
2023-04-15T19:21:32.600Z,73.97
2023-04-15T19:24:01.143Z,75.01
2023-04-15T19:26:28.927Z,75.02
2023-04-15T19:28:58.876Z,75.66
2023-04-15T19:31:27.172Z,75.22
2023-04-15T19:33:54.944Z,75.26
2023-04-15T19:36:22.944Z,75.71
2023-04-15T19:38:51.233Z,75.35
2023-04-15T19:41:18.696Z,74.91
2023-04-15T19:43:46.523Z,75.95
2023-04-15T19:46:17.302Z,76.26
2023-04-15T19:48:45.177Z,76.89
2023-04-15T19:51:13.281Z,77.59
2023-04-15T19:53:41.937Z,75.82
2023-04-15T19:56:10.015Z,75.77
2023-04-15T19:58:38.488Z,76.26
2023-04-15T20:01:06.393Z,77.00
2023-04-15T20:03:34.602Z,78.02
2023-04-15T20:06:02.377Z,79.68
2023-04-15T20:08:30.204Z,81.21
2023-04-15T20:10:58.191Z,82.34
2023-04-15T20:13:26.035Z,83.02
2023-04-15T20:15:53.764Z,83.79
2023-04-15T20:18:21.562Z,84.59
2023-04-15T20:20:48.994Z,84.55
2023-04-15T20:23:16.648Z,84.31
2023-04-15T20:25:44.522Z,84.12
2023-04-15T20:28:12.260Z,84.28
2023-04-15T20:30:41.233Z,84.63
2023-04-15T20:33:09.549Z,84.29
2023-04-15T20:35:37.302Z,85.28
2023-04-15T20:38:04.732Z,84.79
2023-04-15T20:40:35.421Z,84.25
2023-04-15T20:43:02.914Z,83.71
2023-04-15T20:45:30.696Z,84.63
2023-04-15T20:47:59.365Z,84.89
2023-04-15T20:50:26.835Z,85.49
2023-04-15T20:52:54.240Z,85.70
2023-04-15T20:55:21.953Z,85.35
2023-04-15T20:57:49.916Z,85.91
2023-04-15T21:00:17.769Z,85.78
2023-04-15T21:02:46.021Z,85.70
2023-04-15T21:05:13.628Z,86.21
2023-04-15T21:07:41.463Z,86.62
2023-04-15T21:10:09.691Z,86.52
2023-04-15T21:12:41.158Z,86.79
2023-04-15T21:15:09.352Z,86.97
2023-04-15T21:17:36.804Z,86.57
2023-04-15T21:20:04.705Z,86.06
2023-04-15T21:22:32.575Z,85.41
2023-04-15T21:25:00.035Z,85.68
2023-04-15T21:27:27.562Z,85.46
2023-04-15T21:29:55.534Z,85.50
2023-04-15T21:32:23.024Z,85.71
2023-04-15T21:34:50.549Z,85.33
2023-04-15T21:37:18.313Z,85.81
2023-04-15T21:39:46.054Z,85.73
2023-04-15T21:42:13.610Z,86.26
2023-04-15T21:44:41.444Z,85.82
2023-04-15T21:47:09.101Z,85.27
2023-04-15T21:49:36.724Z,85.73
2023-04-15T21:52:04.677Z,86.62
2023-04-15T21:54:33.373Z,86.28
2023-04-15T21:57:01.719Z,86.11
2023-04-15T21:59:29.463Z,86.06
2023-04-15T22:01:57.177Z,85.65
2023-04-15T22:04:25.054Z,85.62
2023-04-15T22:06:55.660Z,85.01
2023-04-15T22:09:23.459Z,85.17
2023-04-15T22:11:51.184Z,85.23
2023-04-15T22:14:18.563Z,84.91
2023-04-15T22:16:46.119Z,84.77
2023-04-15T22:19:13.931Z,84.57
2023-04-15T22:21:41.731Z,84.86
2023-04-15T22:24:38.762Z,84.61
2023-04-15T22:26:58.984Z,84.99
2023-04-15T22:29:26.523Z,84.73
2023-04-15T22:31:54.784Z,85.01
2023-04-15T22:34:22.567Z,85.01
2023-04-15T22:36:51.321Z,85.96
2023-04-15T22:39:19.778Z,86.78
2023-04-15T22:41:47.839Z,86.91
2023-04-15T22:44:15.447Z,87.77
2023-04-15T22:46:43.192Z,87.15
2023-04-15T22:49:11.121Z,86.34
2023-04-15T22:51:38.613Z,86.30
2023-04-15T22:54:06.143Z,85.98
2023-04-15T22:56:33.857Z,86.18
2023-04-15T22:59:01.402Z,85.93
2023-04-15T23:01:28.985Z,85.78
2023-04-15T23:04:09.534Z,86.09
2023-04-15T23:06:44.273Z,85.57
2023-04-15T23:09:12.072Z,85.24
2023-04-15T23:11:39.874Z,84.94
2023-04-15T23:14:07.595Z,84.78
2023-04-15T23:16:35.646Z,84.73
2023-04-15T23:19:03.144Z,84.61
2023-04-15T23:21:31.291Z,84.59
2023-04-15T23:23:59.138Z,84.53
2023-04-15T23:26:27.350Z,84.21
2023-04-15T23:28:54.938Z,84.02
2023-04-15T23:31:22.690Z,83.84
2023-04-15T23:33:50.349Z,83.97
2023-04-15T23:36:17.760Z,83.90
2023-04-15T23:38:45.525Z,83.69
2023-04-15T23:41:12.954Z,83.80
2023-04-15T23:43:40.993Z,83.72
2023-04-15T23:46:09.604Z,83.61
2023-04-15T23:48:37.652Z,83.72
2023-04-15T23:51:05.912Z,83.42
2023-04-15T23:53:33.862Z,83.27
2023-04-15T23:56:01.504Z,82.99
2023-04-15T23:58:29.057Z,82.78
